sensor_id;sensor_type;location;lat;lon;timestamp;temperature;humidity
16846;DHT22;8539;53.188;8.696;2022-07-29T00:01:47;14.70;98.30
16846;DHT22;8539;53.188;8.696;2022-07-29T00:04:13;14.70;98.40
16846;DHT22;8539;53.188;8.696;2022-07-29T00:06:39;14.70;98.50
16846;DHT22;8539;53.188;8.696;2022-07-29T00:09:06;14.70;98.50
16846;DHT22;8539;53.188;8.696;2022-07-29T00:11:32;14.70;98.60
16846;DHT22;8539;53.188;8.696;2022-07-29T00:13:59;14.70;98.70
16846;DHT22;8539;53.188;8.696;2022-07-29T00:16:25;14.60;98.70
16846;DHT22;8539;53.188;8.696;2022-07-29T00:18:51;14.60;98.80
16846;DHT22;8539;53.188;8.696;2022-07-29T00:21:18;14.60;98.90
16846;DHT22;8539;53.188;8.696;2022-07-29T00:23:44;14.60;99.00
16846;DHT22;8539;53.188;8.696;2022-07-29T00:26:10;14.60;99.00
16846;DHT22;8539;53.188;8.696;2022-07-29T00:28:36;14.60;99.10
16846;DHT22;8539;53.188;8.696;2022-07-29T00:31:02;14.50;99.10
16846;DHT22;8539;53.188;8.696;2022-07-29T00:33:29;14.50;99.20
16846;DHT22;8539;53.188;8.696;2022-07-29T00:35:55;14.50;99.20
16846;DHT22;8539;53.188;8.696;2022-07-29T00:38:22;14.40;99.30
16846;DHT22;8539;53.188;8.696;2022-07-29T00:40:48;14.40;99.40
16846;DHT22;8539;53.188;8.696;2022-07-29T00:43:14;14.40;99.40
16846;DHT22;8539;53.188;8.696;2022-07-29T00:45:41;14.40;99.50
16846;DHT22;8539;53.188;8.696;2022-07-29T00:48:07;14.40;99.60
16846;DHT22;8539;53.188;8.696;2022-07-29T00:50:36;14.30;99.60
16846;DHT22;8539;53.188;8.696;2022-07-29T00:53:05;14.30;99.60
16846;DHT22;8539;53.188;8.696;2022-07-29T00:55:31;14.30;99.60
16846;DHT22;8539;53.188;8.696;2022-07-29T00:57:59;14.30;99.70
16846;DHT22;8539;53.188;8.696;2022-07-29T01:00:27;14.30;99.70
16846;DHT22;8539;53.188;8.696;2022-07-29T01:02:58;14.30;99.70
16846;DHT22;8539;53.188;8.696;2022-07-29T01:05:26;14.20;99.70
16846;DHT22;8539;53.188;8.696;2022-07-29T01:07:53;14.20;99.80
16846;DHT22;8539;53.188;8.696;2022-07-29T01:10:21;14.20;99.80
16846;DHT22;8539;53.188;8.696;2022-07-29T01:12:50;14.20;99.80
16846;DHT22;8539;53.188;8.696;2022-07-29T01:15:17;14.20;99.80
16846;DHT22;8539;53.188;8.696;2022-07-29T01:17:47;14.20;99.80
16846;DHT22;8539;53.188;8.696;2022-07-29T01:20:21;14.10;99.90
16846;DHT22;8539;53.188;8.696;2022-07-29T01:31:48;14.00;99.90
16846;DHT22;8539;53.188;8.696;2022-07-29T01:34:53;14.00;99.90
16846;DHT22;8539;53.188;8.696;2022-07-29T01:39:59;14.00;99.90
16846;DHT22;8539;53.188;8.696;2022-07-29T01:45:14;14.00;99.90
16846;DHT22;8539;53.188;8.696;2022-07-29T01:50:23;13.90;99.90
16846;DHT22;8539;53.188;8.696;2022-07-29T01:52:54;13.90;99.90
16846;DHT22;8539;53.188;8.696;2022-07-29T01:55:35;13.90;99.90
16846;DHT22;8539;53.188;8.696;2022-07-29T01:58:04;13.90;99.90
16846;DHT22;8539;53.188;8.696;2022-07-29T02:00:33;13.90;99.90
16846;DHT22;8539;53.188;8.696;2022-07-29T02:03:04;13.80;99.90
16846;DHT22;8539;53.188;8.696;2022-07-29T02:05:32;13.80;99.90
16846;DHT22;8539;53.188;8.696;2022-07-29T02:08:01;13.80;99.90
16846;DHT22;8539;53.188;8.696;2022-07-29T02:10:34;13.80;99.90
16846;DHT22;8539;53.188;8.696;2022-07-29T02:13:03;13.80;99.90
16846;DHT22;8539;53.188;8.696;2022-07-29T02:15:32;13.80;99.90
16846;DHT22;8539;53.188;8.696;2022-07-29T02:18:02;13.80;99.90
16846;DHT22;8539;53.188;8.696;2022-07-29T02:20:30;13.80;99.90
16846;DHT22;8539;53.188;8.696;2022-07-29T02:22:58;13.80;99.90
16846;DHT22;8539;53.188;8.696;2022-07-29T02:25:26;13.80;99.90
16846;DHT22;8539;53.188;8.696;2022-07-29T02:27:54;13.70;99.90
16846;DHT22;8539;53.188;8.696;2022-07-29T02:30:22;13.70;99.90
16846;DHT22;8539;53.188;8.696;2022-07-29T02:32:50;13.70;99.90
16846;DHT22;8539;53.188;8.696;2022-07-29T02:35:18;13.70;99.90
16846;DHT22;8539;53.188;8.696;2022-07-29T02:37:46;13.70;99.90
16846;DHT22;8539;53.188;8.696;2022-07-29T02:40:34;13.70;99.90
16846;DHT22;8539;53.188;8.696;2022-07-29T02:43:02;13.70;99.90
16846;DHT22;8539;53.188;8.696;2022-07-29T02:45:32;13.70;99.90
16846;DHT22;8539;53.188;8.696;2022-07-29T02:48:00;13.70;99.90
16846;DHT22;8539;53.188;8.696;2022-07-29T02:50:33;13.70;99.90
16846;DHT22;8539;53.188;8.696;2022-07-29T02:53:07;13.70;99.90
16846;DHT22;8539;53.188;8.696;2022-07-29T02:55:40;13.70;99.90
16846;DHT22;8539;53.188;8.696;2022-07-29T03:00:59;13.70;99.90
16846;DHT22;8539;53.188;8.696;2022-07-29T03:03:31;13.60;99.90
16846;DHT22;8539;53.188;8.696;2022-07-29T03:05:59;13.60;99.90
16846;DHT22;8539;53.188;8.696;2022-07-29T03:08:27;13.60;99.90
16846;DHT22;8539;53.188;8.696;2022-07-29T03:10:54;13.60;99.90
16846;DHT22;8539;53.188;8.696;2022-07-29T03:13:21;13.60;99.90
16846;DHT22;8539;53.188;8.696;2022-07-29T03:15:48;13.50;99.90
16846;DHT22;8539;53.188;8.696;2022-07-29T03:18:15;13.60;99.90
16846;DHT22;8539;53.188;8.696;2022-07-29T03:20:42;13.50;99.90
16846;DHT22;8539;53.188;8.696;2022-07-29T03:23:08;13.50;99.90
16846;DHT22;8539;53.188;8.696;2022-07-29T03:25:36;13.50;99.90
16846;DHT22;8539;53.188;8.696;2022-07-29T03:28:02;13.50;99.90
16846;DHT22;8539;53.188;8.696;2022-07-29T03:30:28;13.50;99.90
16846;DHT22;8539;53.188;8.696;2022-07-29T03:32:56;13.50;99.90
16846;DHT22;8539;53.188;8.696;2022-07-29T03:35:23;13.40;99.90
16846;DHT22;8539;53.188;8.696;2022-07-29T03:37:49;13.50;99.90
16846;DHT22;8539;53.188;8.696;2022-07-29T03:40:22;13.50;99.90
16846;DHT22;8539;53.188;8.696;2022-07-29T03:42:51;13.50;99.90
16846;DHT22;8539;53.188;8.696;2022-07-29T03:45:20;13.50;99.90
16846;DHT22;8539;53.188;8.696;2022-07-29T03:47:58;13.50;99.90
16846;DHT22;8539;53.188;8.696;2022-07-29T03:50:25;13.40;99.90
16846;DHT22;8539;53.188;8.696;2022-07-29T03:52:51;13.40;99.90
16846;DHT22;8539;53.188;8.696;2022-07-29T03:55:18;13.50;99.90
16846;DHT22;8539;53.188;8.696;2022-07-29T03:57:45;13.50;99.90
16846;DHT22;8539;53.188;8.696;2022-07-29T04:00:13;13.50;99.90
16846;DHT22;8539;53.188;8.696;2022-07-29T04:02:41;13.50;99.90
16846;DHT22;8539;53.188;8.696;2022-07-29T04:05:13;13.50;99.90
16846;DHT22;8539;53.188;8.696;2022-07-29T04:07:43;13.50;99.90
16846;DHT22;8539;53.188;8.696;2022-07-29T04:10:09;13.50;99.90
16846;DHT22;8539;53.188;8.696;2022-07-29T04:12:35;13.50;99.90
16846;DHT22;8539;53.188;8.696;2022-07-29T04:15:03;13.50;99.90
16846;DHT22;8539;53.188;8.696;2022-07-29T04:17:29;13.50;99.90
16846;DHT22;8539;53.188;8.696;2022-07-29T04:19:56;13.50;99.90
16846;DHT22;8539;53.188;8.696;2022-07-29T04:22:22;13.60;99.90
16846;DHT22;8539;53.188;8.696;2022-07-29T04:24:48;13.60;99.90
16846;DHT22;8539;53.188;8.696;2022-07-29T04:27:14;13.60;99.90
16846;DHT22;8539;53.188;8.696;2022-07-29T04:29:40;13.60;99.90
16846;DHT22;8539;53.188;8.696;2022-07-29T04:32:07;13.60;99.90
16846;DHT22;8539;53.188;8.696;2022-07-29T04:34:33;13.60;99.90
16846;DHT22;8539;53.188;8.696;2022-07-29T04:36:59;13.70;99.90
16846;DHT22;8539;53.188;8.696;2022-07-29T04:39:25;13.70;99.90
16846;DHT22;8539;53.188;8.696;2022-07-29T04:41:51;13.70;99.90
16846;DHT22;8539;53.188;8.696;2022-07-29T04:44:18;13.70;99.90
16846;DHT22;8539;53.188;8.696;2022-07-29T04:46:44;13.70;99.90
16846;DHT22;8539;53.188;8.696;2022-07-29T04:49:10;13.70;99.90
16846;DHT22;8539;53.188;8.696;2022-07-29T04:51:36;13.70;99.90
16846;DHT22;8539;53.188;8.696;2022-07-29T04:54:03;13.80;99.90
16846;DHT22;8539;53.188;8.696;2022-07-29T04:56:29;13.80;99.90
16846;DHT22;8539;53.188;8.696;2022-07-29T04:58:56;13.80;99.90
16846;DHT22;8539;53.188;8.696;2022-07-29T05:01:22;13.80;99.90
16846;DHT22;8539;53.188;8.696;2022-07-29T05:03:48;13.80;99.90
16846;DHT22;8539;53.188;8.696;2022-07-29T05:06:14;13.90;99.90
16846;DHT22;8539;53.188;8.696;2022-07-29T05:08:40;13.90;99.90
16846;DHT22;8539;53.188;8.696;2022-07-29T05:11:07;13.90;99.90
16846;DHT22;8539;53.188;8.696;2022-07-29T05:13:33;13.90;99.90
16846;DHT22;8539;53.188;8.696;2022-07-29T05:15:59;13.90;99.90
16846;DHT22;8539;53.188;8.696;2022-07-29T05:18:25;14.00;99.90
16846;DHT22;8539;53.188;8.696;2022-07-29T05:20:52;14.00;99.90
16846;DHT22;8539;53.188;8.696;2022-07-29T05:23:18;14.00;99.90
16846;DHT22;8539;53.188;8.696;2022-07-29T05:25:44;14.10;99.90
16846;DHT22;8539;53.188;8.696;2022-07-29T05:28:12;14.10;99.90
16846;DHT22;8539;53.188;8.696;2022-07-29T05:30:38;14.10;99.90
16846;DHT22;8539;53.188;8.696;2022-07-29T05:33:04;14.20;99.90
16846;DHT22;8539;53.188;8.696;2022-07-29T05:35:30;14.20;99.90
16846;DHT22;8539;53.188;8.696;2022-07-29T05:37:56;14.20;99.90
16846;DHT22;8539;53.188;8.696;2022-07-29T05:40:23;14.30;99.90
16846;DHT22;8539;53.188;8.696;2022-07-29T05:42:49;14.30;99.90
16846;DHT22;8539;53.188;8.696;2022-07-29T05:45:18;14.40;99.90
16846;DHT22;8539;53.188;8.696;2022-07-29T05:47:44;14.30;99.90
16846;DHT22;8539;53.188;8.696;2022-07-29T05:50:11;14.30;99.90
16846;DHT22;8539;53.188;8.696;2022-07-29T05:52:37;14.40;99.90
16846;DHT22;8539;53.188;8.696;2022-07-29T05:55:04;14.50;99.90
16846;DHT22;8539;53.188;8.696;2022-07-29T05:57:32;14.50;99.90
16846;DHT22;8539;53.188;8.696;2022-07-29T05:59:58;14.60;99.90
16846;DHT22;8539;53.188;8.696;2022-07-29T06:02:24;14.60;99.90
16846;DHT22;8539;53.188;8.696;2022-07-29T06:04:50;14.70;99.90
16846;DHT22;8539;53.188;8.696;2022-07-29T06:07:16;14.70;99.90
16846;DHT22;8539;53.188;8.696;2022-07-29T06:09:43;14.80;99.90
16846;DHT22;8539;53.188;8.696;2022-07-29T06:12:09;14.80;99.90
16846;DHT22;8539;53.188;8.696;2022-07-29T06:14:36;14.80;99.90
16846;DHT22;8539;53.188;8.696;2022-07-29T06:17:04;14.80;99.90
16846;DHT22;8539;53.188;8.696;2022-07-29T06:19:34;14.80;99.90
16846;DHT22;8539;53.188;8.696;2022-07-29T06:22:01;14.90;99.90
16846;DHT22;8539;53.188;8.696;2022-07-29T06:24:27;14.90;99.90
16846;DHT22;8539;53.188;8.696;2022-07-29T06:26:54;14.90;99.90
16846;DHT22;8539;53.188;8.696;2022-07-29T06:29:20;15.00;99.90
16846;DHT22;8539;53.188;8.696;2022-07-29T06:31:47;15.00;99.90
16846;DHT22;8539;53.188;8.696;2022-07-29T06:34:13;15.00;99.90
16846;DHT22;8539;53.188;8.696;2022-07-29T06:36:39;15.00;99.90
16846;DHT22;8539;53.188;8.696;2022-07-29T06:39:06;15.10;99.90
16846;DHT22;8539;53.188;8.696;2022-07-29T06:41:34;15.10;99.90
16846;DHT22;8539;53.188;8.696;2022-07-29T06:44:00;15.10;99.90
16846;DHT22;8539;53.188;8.696;2022-07-29T06:46:26;15.20;99.90
16846;DHT22;8539;53.188;8.696;2022-07-29T06:48:53;15.30;99.90
16846;DHT22;8539;53.188;8.696;2022-07-29T06:51:20;15.30;99.90
16846;DHT22;8539;53.188;8.696;2022-07-29T06:53:47;15.40;99.90
16846;DHT22;8539;53.188;8.696;2022-07-29T06:56:13;15.50;99.90
16846;DHT22;8539;53.188;8.696;2022-07-29T06:58:39;15.60;99.90
16846;DHT22;8539;53.188;8.696;2022-07-29T07:01:06;15.70;99.90
16846;DHT22;8539;53.188;8.696;2022-07-29T07:03:33;15.70;99.90
16846;DHT22;8539;53.188;8.696;2022-07-29T07:06:00;15.80;99.90
16846;DHT22;8539;53.188;8.696;2022-07-29T07:08:26;15.80;99.90
16846;DHT22;8539;53.188;8.696;2022-07-29T07:10:53;15.90;99.90
16846;DHT22;8539;53.188;8.696;2022-07-29T07:13:19;16.00;99.90
16846;DHT22;8539;53.188;8.696;2022-07-29T07:15:46;16.10;99.90
16846;DHT22;8539;53.188;8.696;2022-07-29T07:18:15;16.20;99.90
16846;DHT22;8539;53.188;8.696;2022-07-29T07:20:42;16.30;99.90
16846;DHT22;8539;53.188;8.696;2022-07-29T07:23:08;16.40;99.90
16846;DHT22;8539;53.188;8.696;2022-07-29T07:25:34;16.50;99.90
16846;DHT22;8539;53.188;8.696;2022-07-29T07:28:01;16.60;99.90
16846;DHT22;8539;53.188;8.696;2022-07-29T07:30:27;16.70;99.90
16846;DHT22;8539;53.188;8.696;2022-07-29T07:32:54;16.80;99.90
16846;DHT22;8539;53.188;8.696;2022-07-29T07:35:21;17.00;99.90
16846;DHT22;8539;53.188;8.696;2022-07-29T07:37:48;17.10;99.90
16846;DHT22;8539;53.188;8.696;2022-07-29T07:40:15;17.30;99.90
16846;DHT22;8539;53.188;8.696;2022-07-29T07:42:41;17.50;99.90
16846;DHT22;8539;53.188;8.696;2022-07-29T07:45:08;17.60;99.90
16846;DHT22;8539;53.188;8.696;2022-07-29T07:47:36;17.80;99.90
16846;DHT22;8539;53.188;8.696;2022-07-29T07:50:05;17.90;99.90
16846;DHT22;8539;53.188;8.696;2022-07-29T07:52:31;18.10;99.90
16846;DHT22;8539;53.188;8.696;2022-07-29T07:54:58;18.30;99.90
16846;DHT22;8539;53.188;8.696;2022-07-29T07:57:24;18.50;99.90
16846;DHT22;8539;53.188;8.696;2022-07-29T07:59:50;18.70;99.90
16846;DHT22;8539;53.188;8.696;2022-07-29T08:02:17;18.80;99.90
16846;DHT22;8539;53.188;8.696;2022-07-29T08:04:43;18.90;99.80
16846;DHT22;8539;53.188;8.696;2022-07-29T08:07:09;18.90;99.80
16846;DHT22;8539;53.188;8.696;2022-07-29T08:09:36;18.90;99.70
16846;DHT22;8539;53.188;8.696;2022-07-29T08:12:02;18.90;99.60
16846;DHT22;8539;53.188;8.696;2022-07-29T08:14:31;18.90;99.50
16846;DHT22;8539;53.188;8.696;2022-07-29T08:16:58;18.90;99.40
16846;DHT22;8539;53.188;8.696;2022-07-29T08:19:24;18.90;99.30
16846;DHT22;8539;53.188;8.696;2022-07-29T08:21:51;18.90;99.30
16846;DHT22;8539;53.188;8.696;2022-07-29T08:24:20;19.10;99.30
16846;DHT22;8539;53.188;8.696;2022-07-29T08:27:04;19.20;99.30
16846;DHT22;8539;53.188;8.696;2022-07-29T08:29:31;19.30;99.20
16846;DHT22;8539;53.188;8.696;2022-07-29T08:31:57;19.40;99.10
16846;DHT22;8539;53.188;8.696;2022-07-29T08:34:23;19.60;99.10
16846;DHT22;8539;53.188;8.696;2022-07-29T08:36:49;19.80;98.90
16846;DHT22;8539;53.188;8.696;2022-07-29T08:39:15;20.00;98.80
16846;DHT22;8539;53.188;8.696;2022-07-29T08:41:42;20.30;98.60
16846;DHT22;8539;53.188;8.696;2022-07-29T08:44:08;20.60;98.40
16846;DHT22;8539;53.188;8.696;2022-07-29T08:46:37;20.90;98.20
16846;DHT22;8539;53.188;8.696;2022-07-29T08:49:04;21.20;97.90
16846;DHT22;8539;53.188;8.696;2022-07-29T08:51:33;21.50;97.40
16846;DHT22;8539;53.188;8.696;2022-07-29T08:54:01;21.70;96.90
16846;DHT22;8539;53.188;8.696;2022-07-29T08:56:28;22.00;96.00
16846;DHT22;8539;53.188;8.696;2022-07-29T08:58:55;22.00;95.50
16846;DHT22;8539;53.188;8.696;2022-07-29T09:01:26;22.10;95.20
16846;DHT22;8539;53.188;8.696;2022-07-29T09:03:56;22.30;94.90
16846;DHT22;8539;53.188;8.696;2022-07-29T09:06:25;22.50;94.60
16846;DHT22;8539;53.188;8.696;2022-07-29T09:08:58;22.70;94.20
16846;DHT22;8539;53.188;8.696;2022-07-29T09:11:26;22.90;94.00
16846;DHT22;8539;53.188;8.696;2022-07-29T09:13:52;23.30;93.70
16846;DHT22;8539;53.188;8.696;2022-07-29T09:16:18;23.60;93.20
16846;DHT22;8539;53.188;8.696;2022-07-29T09:18:46;23.80;92.80
16846;DHT22;8539;53.188;8.696;2022-07-29T09:21:14;23.90;92.10
16846;DHT22;8539;53.188;8.696;2022-07-29T09:24:08;23.80;91.70
16846;DHT22;8539;53.188;8.696;2022-07-29T09:26:38;23.90;91.40
16846;DHT22;8539;53.188;8.696;2022-07-29T09:29:19;24.00;91.20
16846;DHT22;8539;53.188;8.696;2022-07-29T09:31:48;24.30;91.00
16846;DHT22;8539;53.188;8.696;2022-07-29T09:34:20;24.40;90.70
16846;DHT22;8539;53.188;8.696;2022-07-29T09:36:49;24.50;90.50
16846;DHT22;8539;53.188;8.696;2022-07-29T09:42:02;24.40;89.70
16846;DHT22;8539;53.188;8.696;2022-07-29T09:44:47;24.30;89.10
16846;DHT22;8539;53.188;8.696;2022-07-29T09:47:15;24.30;88.80
16846;DHT22;8539;53.188;8.696;2022-07-29T09:49:58;24.30;88.50
16846;DHT22;8539;53.188;8.696;2022-07-29T09:52:26;24.30;88.20
16846;DHT22;8539;53.188;8.696;2022-07-29T09:54:52;24.30;87.40
16846;DHT22;8539;53.188;8.696;2022-07-29T09:57:27;24.30;87.10
16846;DHT22;8539;53.188;8.696;2022-07-29T10:00:02;24.30;86.70
16846;DHT22;8539;53.188;8.696;2022-07-29T10:02:30;24.30;86.20
16846;DHT22;8539;53.188;8.696;2022-07-29T10:04:58;24.40;85.80
16846;DHT22;8539;53.188;8.696;2022-07-29T10:07:25;24.40;85.40
16846;DHT22;8539;53.188;8.696;2022-07-29T10:09:56;24.40;85.30
16846;DHT22;8539;53.188;8.696;2022-07-29T10:12:24;24.50;85.10
16846;DHT22;8539;53.188;8.696;2022-07-29T10:14:51;24.50;84.70
16846;DHT22;8539;53.188;8.696;2022-07-29T10:17:18;24.50;84.30
16846;DHT22;8539;53.188;8.696;2022-07-29T10:19:45;24.60;84.10
16846;DHT22;8539;53.188;8.696;2022-07-29T10:22:11;24.60;83.80
16846;DHT22;8539;53.188;8.696;2022-07-29T10:24:38;24.60;83.40
16846;DHT22;8539;53.188;8.696;2022-07-29T10:27:07;24.60;83.00
16846;DHT22;8539;53.188;8.696;2022-07-29T10:29:33;24.60;82.80
16846;DHT22;8539;53.188;8.696;2022-07-29T10:32:25;24.70;82.60
16846;DHT22;8539;53.188;8.696;2022-07-29T10:41:17;25.00;82.10
16846;DHT22;8539;53.188;8.696;2022-07-29T10:44:08;25.20;82.00
16846;DHT22;8539;53.188;8.696;2022-07-29T10:46:36;25.40;81.80
16846;DHT22;8539;53.188;8.696;2022-07-29T10:49:11;25.50;81.10
16846;DHT22;8539;53.188;8.696;2022-07-29T10:52:00;25.40;80.80
16846;DHT22;8539;53.188;8.696;2022-07-29T10:54:36;25.40;80.20
16846;DHT22;8539;53.188;8.696;2022-07-29T10:57:26;25.30;80.20
16846;DHT22;8539;53.188;8.696;2022-07-29T11:05:03;25.10;80.10
16846;DHT22;8539;53.188;8.696;2022-07-29T11:07:32;25.30;80.20
16846;DHT22;8539;53.188;8.696;2022-07-29T11:10:19;25.40;80.50
16846;DHT22;8539;53.188;8.696;2022-07-29T11:12:46;25.50;80.30
16846;DHT22;8539;53.188;8.696;2022-07-29T11:15:15;25.60;80.20
16846;DHT22;8539;53.188;8.696;2022-07-29T11:20:45;25.90;79.10
16846;DHT22;8539;53.188;8.696;2022-07-29T11:25:54;26.40;77.70
16846;DHT22;8539;53.188;8.696;2022-07-29T11:28:34;26.60;77.30
16846;DHT22;8539;53.188;8.696;2022-07-29T11:31:01;26.70;75.90
16846;DHT22;8539;53.188;8.696;2022-07-29T11:33:31;26.70;73.80
16846;DHT22;8539;53.188;8.696;2022-07-29T11:36:14;26.60;72.60
16846;DHT22;8539;53.188;8.696;2022-07-29T11:38:41;26.50;72.50
16846;DHT22;8539;53.188;8.696;2022-07-29T11:41:24;26.50;72.10
16846;DHT22;8539;53.188;8.696;2022-07-29T11:43:56;26.50;71.70
16846;DHT22;8539;53.188;8.696;2022-07-29T11:46:48;26.50;71.60
16846;DHT22;8539;53.188;8.696;2022-07-29T11:49:25;26.60;71.30
16846;DHT22;8539;53.188;8.696;2022-07-29T11:51:54;26.70;71.00
16846;DHT22;8539;53.188;8.696;2022-07-29T11:54:31;26.60;70.70
16846;DHT22;8539;53.188;8.696;2022-07-29T11:56:59;26.50;70.40
16846;DHT22;8539;53.188;8.696;2022-07-29T11:59:26;26.30;70.10
16846;DHT22;8539;53.188;8.696;2022-07-29T12:01:58;26.30;69.90
16846;DHT22;8539;53.188;8.696;2022-07-29T12:04:25;26.30;69.70
16846;DHT22;8539;53.188;8.696;2022-07-29T12:06:54;26.30;69.60
16846;DHT22;8539;53.188;8.696;2022-07-29T12:09:21;26.30;69.30
16846;DHT22;8539;53.188;8.696;2022-07-29T12:11:48;26.30;69.30
16846;DHT22;8539;53.188;8.696;2022-07-29T12:14:32;26.30;69.20
16846;DHT22;8539;53.188;8.696;2022-07-29T12:17:00;26.30;68.80
16846;DHT22;8539;53.188;8.696;2022-07-29T12:19:26;26.20;68.40
16846;DHT22;8539;53.188;8.696;2022-07-29T12:21:54;26.00;68.20
16846;DHT22;8539;53.188;8.696;2022-07-29T12:24:21;25.90;68.20
16846;DHT22;8539;53.188;8.696;2022-07-29T12:26:55;25.90;68.20
16846;DHT22;8539;53.188;8.696;2022-07-29T12:29:22;25.90;68.10
16846;DHT22;8539;53.188;8.696;2022-07-29T12:31:53;25.80;68.30
16846;DHT22;8539;53.188;8.696;2022-07-29T12:34:24;25.80;68.50
16846;DHT22;8539;53.188;8.696;2022-07-29T12:36:53;25.80;68.60
16846;DHT22;8539;53.188;8.696;2022-07-29T12:39:19;25.80;68.50
16846;DHT22;8539;53.188;8.696;2022-07-29T12:41:46;25.80;68.40
16846;DHT22;8539;53.188;8.696;2022-07-29T12:44:12;25.80;68.40
16846;DHT22;8539;53.188;8.696;2022-07-29T12:46:38;25.70;68.40
16846;DHT22;8539;53.188;8.696;2022-07-29T12:49:05;25.80;68.40
16846;DHT22;8539;53.188;8.696;2022-07-29T12:51:35;25.70;68.50
16846;DHT22;8539;53.188;8.696;2022-07-29T12:54:14;25.70;68.60
16846;DHT22;8539;53.188;8.696;2022-07-29T12:56:43;25.80;68.60
16846;DHT22;8539;53.188;8.696;2022-07-29T12:59:21;25.80;68.60
16846;DHT22;8539;53.188;8.696;2022-07-29T13:01:49;25.90;68.60
16846;DHT22;8539;53.188;8.696;2022-07-29T13:04:25;26.00;68.50
16846;DHT22;8539;53.188;8.696;2022-07-29T13:07:00;26.00;68.30
16846;DHT22;8539;53.188;8.696;2022-07-29T13:09:40;26.00;68.20
16846;DHT22;8539;53.188;8.696;2022-07-29T13:12:12;26.10;68.00
16846;DHT22;8539;53.188;8.696;2022-07-29T13:14:43;26.10;67.70
16846;DHT22;8539;53.188;8.696;2022-07-29T13:17:16;26.10;67.40
16846;DHT22;8539;53.188;8.696;2022-07-29T13:19:43;26.10;67.30
16846;DHT22;8539;53.188;8.696;2022-07-29T13:22:15;26.20;67.00
16846;DHT22;8539;53.188;8.696;2022-07-29T13:24:58;26.10;66.60
16846;DHT22;8539;53.188;8.696;2022-07-29T13:27:29;26.00;66.30
16846;DHT22;8539;53.188;8.696;2022-07-29T13:29:57;26.00;66.30
16846;DHT22;8539;53.188;8.696;2022-07-29T13:32:26;26.00;66.20
16846;DHT22;8539;53.188;8.696;2022-07-29T13:34:53;26.00;66.00
16846;DHT22;8539;53.188;8.696;2022-07-29T13:37:19;26.00;66.10
16846;DHT22;8539;53.188;8.696;2022-07-29T13:39:45;26.00;66.20
16846;DHT22;8539;53.188;8.696;2022-07-29T13:42:16;26.00;66.10
16846;DHT22;8539;53.188;8.696;2022-07-29T13:44:42;25.90;65.90
16846;DHT22;8539;53.188;8.696;2022-07-29T13:47:08;25.90;65.70
16846;DHT22;8539;53.188;8.696;2022-07-29T13:49:35;25.80;65.70
16846;DHT22;8539;53.188;8.696;2022-07-29T13:52:02;25.90;65.60
16846;DHT22;8539;53.188;8.696;2022-07-29T13:54:28;26.00;65.60
16846;DHT22;8539;53.188;8.696;2022-07-29T13:56:54;26.00;65.50
16846;DHT22;8539;53.188;8.696;2022-07-29T13:59:20;26.00;65.60
16846;DHT22;8539;53.188;8.696;2022-07-29T14:01:46;26.10;65.50
16846;DHT22;8539;53.188;8.696;2022-07-29T14:04:13;26.10;65.60
16846;DHT22;8539;53.188;8.696;2022-07-29T14:06:41;26.10;65.40
16846;DHT22;8539;53.188;8.696;2022-07-29T14:09:07;26.10;65.40
16846;DHT22;8539;53.188;8.696;2022-07-29T14:11:36;26.00;65.50
16846;DHT22;8539;53.188;8.696;2022-07-29T14:14:04;26.00;65.50
16846;DHT22;8539;53.188;8.696;2022-07-29T14:16:30;26.00;65.60
16846;DHT22;8539;53.188;8.696;2022-07-29T14:18:57;26.00;65.60
16846;DHT22;8539;53.188;8.696;2022-07-29T14:21:23;26.00;65.90
16846;DHT22;8539;53.188;8.696;2022-07-29T14:23:49;25.90;66.10
16846;DHT22;8539;53.188;8.696;2022-07-29T14:26:16;25.80;66.10
16846;DHT22;8539;53.188;8.696;2022-07-29T14:28:42;25.80;66.40
16846;DHT22;8539;53.188;8.696;2022-07-29T14:31:09;25.80;66.50
16846;DHT22;8539;53.188;8.696;2022-07-29T14:33:35;25.70;66.70
16846;DHT22;8539;53.188;8.696;2022-07-29T14:36:02;25.70;66.70
16846;DHT22;8539;53.188;8.696;2022-07-29T14:38:28;25.70;66.90
16846;DHT22;8539;53.188;8.696;2022-07-29T14:40:55;25.70;67.10
16846;DHT22;8539;53.188;8.696;2022-07-29T14:43:21;25.70;67.30
16846;DHT22;8539;53.188;8.696;2022-07-29T14:45:47;25.60;67.40
16846;DHT22;8539;53.188;8.696;2022-07-29T14:48:13;25.60;67.50
16846;DHT22;8539;53.188;8.696;2022-07-29T14:50:39;25.60;67.50
16846;DHT22;8539;53.188;8.696;2022-07-29T14:53:06;25.60;67.50
16846;DHT22;8539;53.188;8.696;2022-07-29T14:55:32;25.60;67.60
16846;DHT22;8539;53.188;8.696;2022-07-29T14:57:58;25.50;67.80
16846;DHT22;8539;53.188;8.696;2022-07-29T15:00:25;25.50;68.00
16846;DHT22;8539;53.188;8.696;2022-07-29T15:02:52;25.50;68.20
16846;DHT22;8539;53.188;8.696;2022-07-29T15:05:18;25.50;68.30
16846;DHT22;8539;53.188;8.696;2022-07-29T15:07:44;25.40;68.40
16846;DHT22;8539;53.188;8.696;2022-07-29T15:10:10;25.30;68.40
16846;DHT22;8539;53.188;8.696;2022-07-29T15:12:36;25.30;68.50
16846;DHT22;8539;53.188;8.696;2022-07-29T15:15:03;25.20;68.60
16846;DHT22;8539;53.188;8.696;2022-07-29T15:17:29;25.10;68.70
16846;DHT22;8539;53.188;8.696;2022-07-29T15:19:55;25.10;68.90
16846;DHT22;8539;53.188;8.696;2022-07-29T15:22:22;25.00;69.10
16846;DHT22;8539;53.188;8.696;2022-07-29T15:24:49;25.00;69.30
16846;DHT22;8539;53.188;8.696;2022-07-29T15:27:15;24.90;69.50
16846;DHT22;8539;53.188;8.696;2022-07-29T15:29:42;24.80;69.80
16846;DHT22;8539;53.188;8.696;2022-07-29T15:32:08;24.80;70.20
16846;DHT22;8539;53.188;8.696;2022-07-29T15:34:36;24.70;70.40
16846;DHT22;8539;53.188;8.696;2022-07-29T15:37:02;24.60;70.80
16846;DHT22;8539;53.188;8.696;2022-07-29T15:39:29;24.60;71.20
16846;DHT22;8539;53.188;8.696;2022-07-29T15:41:55;24.50;71.60
16846;DHT22;8539;53.188;8.696;2022-07-29T15:44:21;24.50;72.00
16846;DHT22;8539;53.188;8.696;2022-07-29T15:46:48;24.50;72.30
16846;DHT22;8539;53.188;8.696;2022-07-29T15:49:35;24.40;72.80
16846;DHT22;8539;53.188;8.696;2022-07-29T15:52:05;24.30;73.20
16846;DHT22;8539;53.188;8.696;2022-07-29T15:54:33;24.30;73.50
16846;DHT22;8539;53.188;8.696;2022-07-29T15:57:00;24.30;73.80
16846;DHT22;8539;53.188;8.696;2022-07-29T15:59:26;24.20;74.10
16846;DHT22;8539;53.188;8.696;2022-07-29T16:01:52;24.20;74.40
16846;DHT22;8539;53.188;8.696;2022-07-29T16:04:19;24.10;74.60
16846;DHT22;8539;53.188;8.696;2022-07-29T16:06:46;24.10;74.90
16846;DHT22;8539;53.188;8.696;2022-07-29T16:09:14;24.10;75.10
16846;DHT22;8539;53.188;8.696;2022-07-29T16:11:41;24.10;75.20
16846;DHT22;8539;53.188;8.696;2022-07-29T16:14:08;24.00;75.40
16846;DHT22;8539;53.188;8.696;2022-07-29T16:16:36;23.90;75.70
16846;DHT22;8539;53.188;8.696;2022-07-29T16:19:03;23.90;75.90
16846;DHT22;8539;53.188;8.696;2022-07-29T16:21:30;23.90;76.00
16846;DHT22;8539;53.188;8.696;2022-07-29T16:23:57;23.90;76.10
16846;DHT22;8539;53.188;8.696;2022-07-29T16:26:24;23.80;76.30
16846;DHT22;8539;53.188;8.696;2022-07-29T16:28:50;23.80;76.40
16846;DHT22;8539;53.188;8.696;2022-07-29T16:31:16;23.70;76.60
16846;DHT22;8539;53.188;8.696;2022-07-29T16:33:43;23.70;76.70